createdAt,value
2023-06-13T00:00:06.678Z,100.00
2023-06-13T00:02:53.244Z,100.00
2023-06-13T00:05:26.297Z,100.00
2023-06-13T00:08:14.203Z,100.00
2023-06-13T00:10:47.827Z,100.00
2023-06-13T00:13:35.295Z,100.00
2023-06-13T00:16:08.324Z,100.00
2023-06-13T00:18:55.238Z,100.00
2023-06-13T00:21:35.187Z,100.00
2023-06-13T00:24:29.299Z,100.00
2023-06-13T00:27:16.208Z,100.00
2023-06-13T00:29:49.315Z,100.00
2023-06-13T00:32:36.439Z,100.00
2023-06-13T00:35:17.200Z,100.00
2023-06-13T00:38:11.212Z,100.00
2023-06-13T00:40:59.216Z,100.00
2023-06-13T00:43:39.213Z,100.00
2023-06-13T00:46:43.241Z,100.00
2023-06-13T00:49:30.227Z,100.00
2023-06-13T00:52:14.212Z,100.00
2023-06-13T00:55:08.204Z,100.00
2023-06-13T00:57:59.219Z,100.00
2023-06-13T01:00:33.309Z,100.00
2023-06-13T01:03:23.224Z,100.00
2023-06-13T01:05:56.300Z,100.00
2023-06-13T01:08:45.223Z,100.00
2023-06-13T01:11:33.263Z,100.00
2023-06-13T01:14:35.252Z,100.00
2023-06-13T01:17:36.296Z,100.00
2023-06-13T01:20:34.241Z,100.00
2023-06-13T01:23:44.258Z,100.00
2023-06-13T01:26:35.213Z,100.00
2023-06-13T01:29:24.309Z,100.00
2023-06-13T01:32:10.343Z,100.00
2023-06-13T01:34:57.240Z,100.00
2023-06-13T01:37:37.239Z,100.00
2023-06-13T01:40:31.248Z,100.00
2023-06-13T01:43:18.246Z,100.00
2023-06-13T01:45:52.390Z,100.00
2023-06-13T01:48:49.250Z,100.00
2023-06-13T01:51:42.346Z,100.00
2023-06-13T01:54:31.237Z,100.00
2023-06-13T01:57:10.379Z,100.00
2023-06-13T02:00:03.208Z,100.00
2023-06-13T02:02:45.301Z,100.00
2023-06-13T02:05:42.248Z,100.00
2023-06-13T02:08:29.224Z,100.00
2023-06-13T02:11:02.392Z,100.00
2023-06-13T02:13:49.236Z,100.00
2023-06-13T02:16:26.520Z,100.00
2023-06-13T02:19:15.200Z,100.00
2023-06-13T02:21:52.759Z,100.00
2023-06-13T02:24:39.201Z,100.00
2023-06-13T02:27:12.349Z,100.00
2023-06-13T02:29:59.233Z,100.00
2023-06-13T02:32:39.259Z,100.00
2023-06-13T02:35:34.247Z,100.00
2023-06-13T02:38:28.228Z,100.00
2023-06-13T02:41:22.248Z,100.00
2023-06-13T02:44:09.235Z,100.00
2023-06-13T02:46:42.401Z,100.00
2023-06-13T02:49:29.377Z,100.00
2023-06-13T02:52:02.483Z,100.00
2023-06-13T02:54:49.226Z,100.00
2023-06-13T02:57:22.393Z,100.00
2023-06-13T03:00:09.273Z,100.00
2023-06-13T03:02:44.962Z,100.00
2023-06-13T03:05:33.337Z,100.00
2023-06-13T03:08:06.392Z,100.00
2023-06-13T03:10:56.228Z,100.00
2023-06-13T03:13:29.513Z,100.00
2023-06-13T03:16:16.381Z,100.00
2023-06-13T03:18:49.951Z,100.00
2023-06-13T03:21:38.295Z,100.00
2023-06-13T03:24:19.304Z,100.00
2023-06-13T03:27:14.263Z,100.00
2023-06-13T03:30:01.278Z,100.00
2023-06-13T03:32:34.437Z,100.00
2023-06-13T03:35:21.247Z,100.00
2023-06-13T03:37:54.374Z,100.00
2023-06-13T03:40:41.234Z,100.00
2023-06-13T03:43:14.366Z,100.00
2023-06-13T03:46:01.278Z,100.00
2023-06-13T03:48:34.509Z,100.00
2023-06-13T03:51:21.260Z,100.00
2023-06-13T03:53:54.368Z,100.00
2023-06-13T03:56:41.255Z,100.00
2023-06-13T03:59:14.377Z,100.00
2023-06-13T04:02:01.269Z,100.00
2023-06-13T04:04:34.500Z,100.00
2023-06-13T04:07:21.269Z,100.00
2023-06-13T04:09:55.491Z,100.00
2023-06-13T04:12:43.283Z,100.00
2023-06-13T04:15:16.461Z,100.00
2023-06-13T04:18:03.332Z,100.00
2023-06-13T04:20:43.257Z,100.00
2023-06-13T04:23:37.299Z,100.00
2023-06-13T04:26:26.273Z,100.00
2023-06-13T04:28:59.693Z,100.00
2023-06-13T04:31:50.309Z,100.00
2023-06-13T04:34:24.976Z,100.00
2023-06-13T04:37:12.367Z,100.00
2023-06-13T04:39:45.367Z,100.00
2023-06-13T04:42:34.287Z,100.00
2023-06-13T04:45:07.381Z,100.00
2023-06-13T04:47:57.546Z,100.00
2023-06-13T04:50:32.882Z,100.00
2023-06-13T04:53:19.274Z,100.00
2023-06-13T04:55:59.384Z,100.00
2023-06-13T04:58:56.301Z,100.00
2023-06-13T05:01:51.385Z,100.00
2023-06-13T05:04:39.303Z,100.00
2023-06-13T05:07:16.509Z,100.00
2023-06-13T05:10:03.303Z,100.00
2023-06-13T05:12:43.302Z,100.00
2023-06-13T05:15:38.307Z,99.84
2023-06-13T05:18:25.318Z,100.00
2023-06-13T05:21:05.303Z,99.63
2023-06-13T05:23:52.328Z,100.00
2023-06-13T05:26:25.774Z,100.00
2023-06-13T05:29:13.314Z,100.00
2023-06-13T05:31:46.576Z,100.00
2023-06-13T05:34:34.308Z,99.95
2023-06-13T05:37:11.939Z,100.00
2023-06-13T05:39:59.290Z,99.22
2023-06-13T05:42:32.948Z,99.39
2023-06-13T05:45:19.321Z,97.62
2023-06-13T05:47:52.433Z,97.99
2023-06-13T05:50:39.308Z,97.05
2023-06-13T05:53:19.302Z,97.02
2023-06-13T05:56:06.306Z,97.10
2023-06-13T05:58:46.304Z,97.17
2023-06-13T06:01:42.427Z,96.79
2023-06-13T06:04:29.398Z,96.24
2023-06-13T06:07:09.295Z,97.13
2023-06-13T06:10:03.325Z,93.99
2023-06-13T06:12:57.340Z,95.91
2023-06-13T06:15:44.378Z,96.20
2023-06-13T06:18:20.157Z,95.34
2023-06-13T06:21:10.371Z,96.13
2023-06-13T06:23:45.456Z,97.49
2023-06-13T06:26:33.646Z,96.75
2023-06-13T06:29:06.516Z,97.39
2023-06-13T06:31:53.329Z,96.82
2023-06-13T06:34:26.470Z,97.58
2023-06-13T06:37:14.137Z,96.85
2023-06-13T06:39:47.449Z,96.92
2023-06-13T06:42:34.372Z,96.25
2023-06-13T06:45:07.453Z,96.21
2023-06-13T06:47:55.367Z,97.57
2023-06-13T06:50:28.510Z,97.83
2023-06-13T06:53:15.341Z,97.89
2023-06-13T06:55:48.467Z,98.36
2023-06-13T06:58:35.331Z,98.36
2023-06-13T07:01:08.468Z,98.14
2023-06-13T07:03:55.337Z,99.44
2023-06-13T07:06:35.343Z,99.44
2023-06-13T07:09:22.380Z,99.49
2023-06-13T07:11:58.481Z,99.36
2023-06-13T07:14:45.378Z,99.74
2023-06-13T07:17:25.362Z,99.54
2023-06-13T07:20:21.387Z,99.51
2023-06-13T07:23:01.355Z,100.00
2023-06-13T07:25:55.360Z,99.08
2023-06-13T07:28:45.363Z,99.09
2023-06-13T07:31:18.551Z,98.28
2023-06-13T07:34:08.121Z,99.33
2023-06-13T07:36:45.579Z,99.11
2023-06-13T07:39:39.382Z,99.09
2023-06-13T07:42:29.393Z,99.60
2023-06-13T07:45:02.505Z,98.98
2023-06-13T07:47:49.392Z,98.90
2023-06-13T07:50:23.110Z,98.72
2023-06-13T07:53:10.394Z,99.38
2023-06-13T07:55:47.580Z,98.82
2023-06-13T07:58:34.382Z,98.95
2023-06-13T08:01:14.390Z,99.17
2023-06-13T08:04:01.531Z,99.86
2023-06-13T08:06:41.389Z,99.25
2023-06-13T08:09:31.422Z,99.08
2023-06-13T08:12:15.424Z,99.53
2023-06-13T08:15:04.466Z,99.38
2023-06-13T08:17:39.427Z,98.96
2023-06-13T08:20:26.393Z,99.00
2023-06-13T08:23:07.389Z,98.67
2023-06-13T08:26:01.453Z,99.09
2023-06-13T08:28:57.401Z,98.97
2023-06-13T08:31:51.506Z,99.09
2023-06-13T08:34:39.470Z,98.66
2023-06-13T08:37:12.514Z,98.86
2023-06-13T08:39:59.427Z,98.82
2023-06-13T08:42:33.541Z,98.65
2023-06-13T08:45:21.493Z,98.89
2023-06-13T08:48:01.580Z,99.15
2023-06-13T08:50:51.491Z,99.85
2023-06-13T08:53:32.399Z,99.83
2023-06-13T08:56:26.397Z,99.96
2023-06-13T08:59:15.454Z,99.63
2023-06-13T09:01:52.484Z,100.00
2023-06-13T09:04:41.463Z,100.00
2023-06-13T09:07:16.200Z,100.00
2023-06-13T09:10:05.419Z,100.00
2023-06-13T09:12:39.581Z,100.00
2023-06-13T09:15:29.543Z,99.77
2023-06-13T09:18:03.557Z,99.44
2023-06-13T09:20:50.399Z,100.00
2023-06-13T09:23:24.517Z,99.47
2023-06-13T09:26:13.460Z,99.90
2023-06-13T09:28:50.285Z,99.79
2023-06-13T09:31:37.502Z,99.28
2023-06-13T09:34:17.465Z,99.63
2023-06-13T09:37:14.284Z,99.14
2023-06-13T09:40:14.441Z,99.43
2023-06-13T09:43:05.261Z,98.49
2023-06-13T09:45:39.600Z,98.10
2023-06-13T09:48:27.454Z,96.24
2023-06-13T09:51:08.485Z,93.63
2023-06-13T09:54:02.422Z,93.31
2023-06-13T09:56:50.476Z,94.85
2023-06-13T09:59:24.605Z,94.49
2023-06-13T10:02:11.528Z,96.67
2023-06-13T10:04:45.614Z,96.70
2023-06-13T10:07:33.575Z,96.93
2023-06-13T10:10:13.575Z,96.73
2023-06-13T10:13:21.456Z,96.75
2023-06-13T10:16:19.467Z,97.32
2023-06-13T10:19:15.441Z,97.64
2023-06-13T10:22:06.621Z,97.31
2023-06-13T10:24:49.454Z,97.41
2023-06-13T10:27:43.504Z,97.58
2023-06-13T10:30:39.802Z,97.57
2023-06-13T10:33:26.013Z,97.17
2023-06-13T10:36:29.526Z,97.28
2023-06-13T10:39:14.653Z,97.53
2023-06-13T10:42:21.612Z,96.01
2023-06-13T10:45:16.508Z,96.22
2023-06-13T10:47:49.628Z,96.62
2023-06-13T10:50:46.573Z,96.88
2023-06-13T10:53:35.477Z,95.70
2023-06-13T10:56:23.522Z,96.39
2023-06-13T10:59:08.653Z,95.91
2023-06-13T11:02:00.222Z,94.96
2023-06-13T11:04:35.637Z,94.82
2023-06-13T11:07:31.566Z,93.96
2023-06-13T11:10:29.554Z,93.10
2023-06-13T11:13:35.522Z,91.72
2023-06-13T11:16:53.550Z,93.57
2023-06-13T11:19:56.506Z,92.03
2023-06-13T11:22:45.508Z,91.09
2023-06-13T11:25:18.554Z,92.17
2023-06-13T11:28:06.532Z,91.45
2023-06-13T11:30:39.630Z,93.19
2023-06-13T11:33:27.516Z,91.25
2023-06-13T11:36:14.216Z,93.10
2023-06-13T11:39:23.516Z,92.20
2023-06-13T11:42:18.536Z,91.58
2023-06-13T11:45:05.557Z,91.70
2023-06-13T11:47:45.665Z,90.42
2023-06-13T11:50:43.519Z,91.14
2023-06-13T11:53:31.511Z,91.42
2023-06-13T11:56:13.613Z,91.37
2023-06-13T11:59:02.617Z,91.24
2023-06-13T12:01:42.602Z,91.73
2023-06-13T12:04:34.592Z,91.52
2023-06-13T12:07:11.773Z,91.23
2023-06-13T12:09:59.509Z,92.05
2023-06-13T12:12:32.645Z,91.52
2023-06-13T12:15:21.492Z,90.70
2023-06-13T12:18:07.647Z,91.16
2023-06-13T12:21:01.570Z,90.82
2023-06-13T12:23:36.523Z,90.74
2023-06-13T12:26:24.549Z,92.22
2023-06-13T12:28:59.384Z,90.73
2023-06-13T12:31:50.526Z,92.05
2023-06-13T12:34:30.470Z,92.13
2023-06-13T12:37:20.556Z,90.24
2023-06-13T12:40:14.207Z,90.28
2023-06-13T12:43:06.396Z,89.96
2023-06-13T12:45:41.698Z,90.81
2023-06-13T12:48:29.564Z,89.53
2023-06-13T12:51:13.515Z,89.03
2023-06-13T12:53:53.571Z,90.53
2023-06-13T12:56:40.535Z,89.30
2023-06-13T12:59:50.554Z,88.26
2023-06-13T13:02:37.618Z,89.07
2023-06-13T13:08:18.530Z,89.10
2023-06-13T13:10:52.646Z,89.06
2023-06-13T13:13:40.535Z,89.20
2023-06-13T13:16:22.574Z,88.61
2023-06-13T13:19:09.592Z,90.82
2023-06-13T13:21:42.754Z,90.82
2023-06-13T13:24:34.289Z,89.36
2023-06-13T13:27:16.635Z,89.34
2023-06-13T13:30:04.559Z,89.75
2023-06-13T13:32:38.670Z,90.65
2023-06-13T13:35:30.446Z,90.65
2023-06-13T13:38:10.537Z,90.15
2023-06-13T13:41:04.528Z,90.32
2023-06-13T13:43:51.560Z,90.26
2023-06-13T13:46:24.640Z,90.13
2023-06-13T13:49:11.740Z,90.21
2023-06-13T13:51:44.654Z,90.40
2023-06-13T13:54:31.620Z,89.73
2023-06-13T13:57:08.171Z,88.97
2023-06-13T13:59:56.710Z,90.02
2023-06-13T14:02:36.594Z,89.89
2023-06-13T14:05:23.817Z,89.92
2023-06-13T14:08:04.621Z,90.75
2023-06-13T14:10:58.567Z,90.81
2023-06-13T14:13:45.573Z,90.61
2023-06-13T14:16:28.915Z,91.25
2023-06-13T14:19:15.561Z,90.84
2023-06-13T14:21:55.590Z,91.79
2023-06-13T14:24:42.658Z,93.44
2023-06-13T14:27:15.763Z,92.19
2023-06-13T14:30:12.756Z,91.49
2023-06-13T14:32:51.740Z,92.69
2023-06-13T14:35:39.598Z,92.72
2023-06-13T14:38:12.693Z,93.25
2023-06-13T14:41:06.660Z,93.04
2023-06-13T14:44:00.805Z,94.56
2023-06-13T14:46:54.681Z,94.52
2023-06-13T14:49:48.645Z,92.40
2023-06-13T14:52:35.599Z,93.74
2023-06-13T14:55:08.682Z,93.41
2023-06-13T14:57:55.632Z,92.37
2023-06-13T15:00:35.617Z,91.57
2023-06-13T15:03:22.891Z,92.26
2023-06-13T15:05:58.865Z,92.16
2023-06-13T15:08:46.656Z,92.75
2023-06-13T15:11:26.611Z,92.58
2023-06-13T15:14:21.673Z,92.46
2023-06-13T15:17:08.628Z,93.24
2023-06-13T15:19:41.696Z,92.59
2023-06-13T15:22:28.627Z,93.28
2023-06-13T15:25:01.882Z,92.99
2023-06-13T15:27:48.653Z,93.30
2023-06-13T15:30:21.758Z,93.67
2023-06-13T15:33:08.707Z,94.20
2023-06-13T15:35:41.693Z,94.43
2023-06-13T15:38:28.633Z,93.28
2023-06-13T15:41:01.855Z,93.64
2023-06-13T15:43:48.658Z,94.25
2023-06-13T15:46:22.779Z,94.00
2023-06-13T15:49:02.631Z,95.21
2023-06-13T15:51:42.748Z,95.84
2023-06-13T15:54:22.629Z,95.20
2023-06-13T15:57:02.625Z,94.97
2023-06-13T15:59:36.817Z,95.22
2023-06-13T16:02:23.652Z,94.92
2023-06-13T16:05:04.662Z,94.68
2023-06-13T16:07:51.668Z,95.18
2023-06-13T16:10:31.605Z,96.11
2023-06-13T16:13:25.609Z,96.18
2023-06-13T16:16:12.624Z,96.49
2023-06-13T16:18:45.872Z,96.16
2023-06-13T16:21:32.675Z,96.09
2023-06-13T16:24:07.214Z,96.63
2023-06-13T16:26:54.986Z,97.25
2023-06-13T16:29:28.711Z,96.99
2023-06-13T16:32:15.610Z,97.52
2023-06-13T16:34:48.733Z,97.80
2023-06-13T16:37:35.619Z,97.60
2023-06-13T16:40:08.774Z,97.85
2023-06-13T16:42:55.658Z,97.47
2023-06-13T16:45:28.785Z,98.07
2023-06-13T16:48:15.637Z,98.60
2023-06-13T16:50:48.804Z,98.04
2023-06-13T16:53:35.643Z,98.67
2023-06-13T16:56:15.642Z,98.82
2023-06-13T16:59:02.663Z,98.92
2023-06-13T17:01:42.694Z,98.23
2023-06-13T17:04:36.635Z,98.57
2023-06-13T17:07:23.635Z,98.67
2023-06-13T17:09:57.194Z,98.47
2023-06-13T17:12:46.672Z,98.46
2023-06-13T17:15:26.674Z,99.38
2023-06-13T17:18:20.643Z,99.38
2023-06-13T17:21:15.641Z,99.18
2023-06-13T17:24:09.677Z,99.81
2023-06-13T17:26:56.682Z,99.82
2023-06-13T17:29:30.134Z,99.77
2023-06-13T17:32:09.702Z,99.60
2023-06-13T17:34:56.650Z,99.02
2023-06-13T17:37:50.642Z,99.75
2023-06-13T17:40:37.665Z,99.82
2023-06-13T17:43:11.100Z,100.00
2023-06-13T17:45:57.717Z,99.88
2023-06-13T17:48:31.221Z,100.00
2023-06-13T17:51:17.675Z,99.92
2023-06-13T17:53:51.932Z,100.00
2023-06-13T17:56:38.667Z,99.95
2023-06-13T17:59:18.677Z,99.99
2023-06-13T18:02:05.646Z,100.00
2023-06-13T18:04:38.796Z,100.00
2023-06-13T18:07:26.667Z,100.00
2023-06-13T18:09:59.788Z,100.00
2023-06-13T18:12:46.713Z,100.00
2023-06-13T18:15:26.649Z,100.00
2023-06-13T18:18:20.662Z,100.00
2023-06-13T18:21:07.668Z,100.00
2023-06-13T18:23:42.607Z,100.00
2023-06-13T18:26:29.687Z,100.00
2023-06-13T18:29:02.791Z,100.00
2023-06-13T18:31:49.774Z,100.00
2023-06-13T18:34:29.714Z,100.00
2023-06-13T18:37:16.722Z,100.00
2023-06-13T18:39:57.683Z,100.00
2023-06-13T18:42:51.683Z,100.00
2023-06-13T18:45:38.707Z,100.00
2023-06-13T18:48:12.828Z,100.00
2023-06-13T18:50:59.706Z,100.00
2023-06-13T18:53:32.805Z,100.00
2023-06-13T18:56:19.702Z,100.00
2023-06-13T18:59:00.768Z,100.00
2023-06-13T19:01:56.665Z,100.00
2023-06-13T19:04:46.736Z,100.00
2023-06-13T19:07:26.896Z,100.00
2023-06-13T19:10:14.700Z,100.00
2023-06-13T19:12:47.808Z,100.00
2023-06-13T19:15:34.738Z,100.00
2023-06-13T19:18:18.736Z,100.00
2023-06-13T19:21:05.702Z,100.00
2023-06-13T19:23:45.809Z,100.00
2023-06-13T19:26:32.714Z,100.00
2023-06-13T19:29:13.740Z,100.00
2023-06-13T19:32:07.759Z,100.00
2023-06-13T19:34:54.707Z,100.00
2023-06-13T19:37:28.336Z,100.00
2023-06-13T19:40:23.703Z,100.00
2023-06-13T19:43:17.737Z,100.00
2023-06-13T19:46:05.701Z,100.00
2023-06-13T19:48:45.770Z,100.00
2023-06-13T19:51:33.747Z,100.00
2023-06-13T19:54:13.717Z,100.00
2023-06-13T19:57:07.732Z,100.00
2023-06-13T19:59:55.724Z,100.00
2023-06-13T20:02:29.779Z,100.00
2023-06-13T20:05:19.961Z,100.00
2023-06-13T20:07:53.949Z,100.00
2023-06-13T20:10:40.742Z,100.00
2023-06-13T20:13:14.253Z,100.00
2023-06-13T20:16:00.825Z,100.00
2023-06-13T20:18:33.846Z,100.00
2023-06-13T20:21:20.755Z,100.00
2023-06-13T20:24:03.772Z,100.00
2023-06-13T20:26:50.730Z,100.00
2023-06-13T20:29:30.721Z,100.00
2023-06-13T20:32:17.773Z,100.00
2023-06-13T20:34:57.753Z,100.00
2023-06-13T20:37:52.750Z,100.00
2023-06-13T20:40:46.771Z,100.00
2023-06-13T20:43:33.770Z,100.00
2023-06-13T20:46:07.055Z,100.00
2023-06-13T20:48:53.780Z,100.00
2023-06-13T20:51:36.333Z,100.00
2023-06-13T20:54:30.750Z,100.00
2023-06-13T20:57:24.793Z,100.00
2023-06-13T21:00:28.752Z,100.00
2023-06-13T21:03:24.747Z,100.00
2023-06-13T21:06:18.761Z,100.00
2023-06-13T21:09:05.791Z,100.00
2023-06-13T21:11:38.853Z,100.00
2023-06-13T21:14:25.778Z,100.00
2023-06-13T21:17:06.728Z,100.00
2023-06-13T21:20:00.768Z,100.00
2023-06-13T21:22:48.773Z,100.00
2023-06-13T21:25:32.769Z,100.00
2023-06-13T21:28:19.773Z,100.00
2023-06-13T21:30:52.888Z,100.00
2023-06-13T21:33:40.807Z,100.00
2023-06-13T21:36:20.774Z,100.00
2023-06-13T21:39:14.819Z,100.00
2023-06-13T21:42:08.785Z,100.00
2023-06-13T21:45:02.800Z,100.00
2023-06-13T21:47:49.842Z,100.00
2023-06-13T21:50:29.763Z,100.00
2023-06-13T21:53:23.773Z,100.00
2023-06-13T21:56:17.786Z,100.00
2023-06-13T21:59:04.793Z,100.00
2023-06-13T22:01:38.728Z,100.00
2023-06-13T22:04:25.764Z,100.00
2023-06-13T22:06:58.892Z,100.00
2023-06-13T22:09:45.780Z,100.00
2023-06-13T22:12:19.012Z,100.00
2023-06-13T22:15:05.801Z,100.00
2023-06-13T22:17:46.939Z,100.00
2023-06-13T22:20:40.795Z,100.00
2023-06-13T22:23:28.787Z,100.00
2023-06-13T22:26:01.924Z,100.00
2023-06-13T22:28:48.784Z,100.00
2023-06-13T22:31:28.805Z,100.00
2023-06-13T22:34:16.807Z,100.00
2023-06-13T22:36:56.789Z,100.00
2023-06-13T22:39:50.789Z,100.00
2023-06-13T22:42:44.796Z,100.00
2023-06-13T22:45:31.812Z,100.00
2023-06-13T22:48:11.866Z,100.00
2023-06-13T22:51:05.816Z,100.00
2023-06-13T22:53:52.798Z,100.00
2023-06-13T22:56:32.865Z,100.00
2023-06-13T22:59:26.909Z,100.00
2023-06-13T23:02:14.816Z,100.00
2023-06-13T23:04:48.341Z,100.00
2023-06-13T23:07:34.801Z,100.00
2023-06-13T23:10:16.033Z,100.00
2023-06-13T23:13:02.825Z,100.00
2023-06-13T23:15:35.896Z,100.00
2023-06-13T23:18:22.811Z,100.00
2023-06-13T23:20:56.169Z,100.00
2023-06-13T23:23:42.856Z,100.00
2023-06-13T23:26:22.841Z,100.00
2023-06-13T23:29:10.814Z,100.00
2023-06-13T23:31:52.882Z,100.00
2023-06-13T23:34:46.840Z,100.00
2023-06-13T23:37:34.854Z,100.00
2023-06-13T23:40:08.981Z,100.00
2023-06-13T23:42:55.857Z,100.00
2023-06-13T23:45:28.912Z,100.00
2023-06-13T23:48:16.845Z,100.00
2023-06-13T23:50:49.933Z,100.00
2023-06-13T23:53:36.827Z,100.00
2023-06-13T23:56:09.943Z,100.00
2023-06-13T23:58:56.827Z,100.00
